sensor_id;sensor_type;location;lat;lon;timestamp;temperature;humidity
25811;DHT22;13645;52.460;13.910;2022-08-25T00:02:01;19.40;99.90
25811;DHT22;13645;52.460;13.910;2022-08-25T00:04:28;19.40;99.90
25811;DHT22;13645;52.460;13.910;2022-08-25T00:06:56;19.30;99.90
25811;DHT22;13645;52.460;13.910;2022-08-25T00:09:29;19.30;99.90
25811;DHT22;13645;52.460;13.910;2022-08-25T00:11:57;19.30;99.90
25811;DHT22;13645;52.460;13.910;2022-08-25T00:14:27;19.30;99.90
25811;DHT22;13645;52.460;13.910;2022-08-25T00:16:55;19.20;99.90
25811;DHT22;13645;52.460;13.910;2022-08-25T00:19:28;19.20;99.90
25811;DHT22;13645;52.460;13.910;2022-08-25T00:21:57;19.20;99.90
25811;DHT22;13645;52.460;13.910;2022-08-25T00:24:24;19.20;99.90
25811;DHT22;13645;52.460;13.910;2022-08-25T00:26:53;19.10;99.90
25811;DHT22;13645;52.460;13.910;2022-08-25T00:29:21;19.10;99.90
25811;DHT22;13645;52.460;13.910;2022-08-25T00:31:48;19.00;99.90
25811;DHT22;13645;52.460;13.910;2022-08-25T00:34:19;19.00;99.90
25811;DHT22;13645;52.460;13.910;2022-08-25T00:36:46;19.00;99.90
25811;DHT22;13645;52.460;13.910;2022-08-25T00:39:13;19.00;99.90
25811;DHT22;13645;52.460;13.910;2022-08-25T00:41:42;19.00;99.90
25811;DHT22;13645;52.460;13.910;2022-08-25T00:44:11;18.90;99.90
25811;DHT22;13645;52.460;13.910;2022-08-25T00:46:46;18.90;99.90
25811;DHT22;13645;52.460;13.910;2022-08-25T00:49:18;18.90;99.90
25811;DHT22;13645;52.460;13.910;2022-08-25T00:52:11;18.90;99.90
25811;DHT22;13645;52.460;13.910;2022-08-25T00:54:46;18.90;99.90
25811;DHT22;13645;52.460;13.910;2022-08-25T00:57:14;18.90;99.90
25811;DHT22;13645;52.460;13.910;2022-08-25T00:59:42;18.80;99.90
25811;DHT22;13645;52.460;13.910;2022-08-25T01:02:10;18.80;99.90
25811;DHT22;13645;52.460;13.910;2022-08-25T01:04:40;18.80;99.90
25811;DHT22;13645;52.460;13.910;2022-08-25T01:07:16;18.80;99.90
25811;DHT22;13645;52.460;13.910;2022-08-25T01:09:45;18.80;99.90
25811;DHT22;13645;52.460;13.910;2022-08-25T01:12:13;18.80;99.90
25811;DHT22;13645;52.460;13.910;2022-08-25T01:14:40;18.70;99.90
25811;DHT22;13645;52.460;13.910;2022-08-25T01:17:07;18.70;99.90
25811;DHT22;13645;52.460;13.910;2022-08-25T01:19:35;18.70;99.90
25811;DHT22;13645;52.460;13.910;2022-08-25T01:22:02;18.80;99.90
25811;DHT22;13645;52.460;13.910;2022-08-25T01:25:09;18.80;99.90
25811;DHT22;13645;52.460;13.910;2022-08-25T01:27:33;18.80;99.90
25811;DHT22;13645;52.460;13.910;2022-08-25T01:29:59;18.70;99.90
25811;DHT22;13645;52.460;13.910;2022-08-25T01:32:26;18.70;99.90
25811;DHT22;13645;52.460;13.910;2022-08-25T01:34:53;18.70;99.90
25811;DHT22;13645;52.460;13.910;2022-08-25T01:37:20;18.70;99.90
25811;DHT22;13645;52.460;13.910;2022-08-25T01:39:47;18.70;99.90
25811;DHT22;13645;52.460;13.910;2022-08-25T01:42:32;18.60;99.90
25811;DHT22;13645;52.460;13.910;2022-08-25T01:45:04;18.50;99.90
25811;DHT22;13645;52.460;13.910;2022-08-25T01:47:31;18.50;99.90
25811;DHT22;13645;52.460;13.910;2022-08-25T01:49:58;18.50;99.90
25811;DHT22;13645;52.460;13.910;2022-08-25T01:52:32;18.50;99.90
25811;DHT22;13645;52.460;13.910;2022-08-25T01:54:59;18.50;99.90
25811;DHT22;13645;52.460;13.910;2022-08-25T01:57:28;18.50;99.90
25811;DHT22;13645;52.460;13.910;2022-08-25T01:59:56;18.50;99.90
25811;DHT22;13645;52.460;13.910;2022-08-25T02:02:23;18.50;99.90
25811;DHT22;13645;52.460;13.910;2022-08-25T02:04:51;18.50;99.90
25811;DHT22;13645;52.460;13.910;2022-08-25T02:07:19;18.40;99.90
25811;DHT22;13645;52.460;13.910;2022-08-25T02:09:45;18.40;99.90
25811;DHT22;13645;52.460;13.910;2022-08-25T02:12:12;18.40;99.90
25811;DHT22;13645;52.460;13.910;2022-08-25T02:14:39;18.40;99.90
25811;DHT22;13645;52.460;13.910;2022-08-25T02:17:07;18.40;99.90
25811;DHT22;13645;52.460;13.910;2022-08-25T02:19:33;18.40;99.90
25811;DHT22;13645;52.460;13.910;2022-08-25T02:22:01;18.40;99.90
25811;DHT22;13645;52.460;13.910;2022-08-25T02:24:27;18.30;99.90
25811;DHT22;13645;52.460;13.910;2022-08-25T02:26:54;18.30;99.90
25811;DHT22;13645;52.460;13.910;2022-08-25T02:29:21;18.30;99.90
25811;DHT22;13645;52.460;13.910;2022-08-25T02:31:48;18.30;99.90
25811;DHT22;13645;52.460;13.910;2022-08-25T02:34:15;18.30;99.90
25811;DHT22;13645;52.460;13.910;2022-08-25T02:36:42;18.40;99.90
25811;DHT22;13645;52.460;13.910;2022-08-25T02:39:10;18.30;99.90
25811;DHT22;13645;52.460;13.910;2022-08-25T02:41:37;18.30;99.90
25811;DHT22;13645;52.460;13.910;2022-08-25T02:44:04;18.30;99.90
25811;DHT22;13645;52.460;13.910;2022-08-25T02:46:32;18.30;99.90
25811;DHT22;13645;52.460;13.910;2022-08-25T02:48:59;18.30;99.90
25811;DHT22;13645;52.460;13.910;2022-08-25T02:51:27;18.40;99.90
25811;DHT22;13645;52.460;13.910;2022-08-25T02:53:57;18.40;99.90
25811;DHT22;13645;52.460;13.910;2022-08-25T02:56:24;18.40;99.90
25811;DHT22;13645;52.460;13.910;2022-08-25T02:58:51;18.30;99.90
25811;DHT22;13645;52.460;13.910;2022-08-25T03:01:18;18.30;99.90
25811;DHT22;13645;52.460;13.910;2022-08-25T03:03:45;18.20;99.90
25811;DHT22;13645;52.460;13.910;2022-08-25T03:06:15;18.20;99.90
25811;DHT22;13645;52.460;13.910;2022-08-25T03:08:42;18.20;99.90
25811;DHT22;13645;52.460;13.910;2022-08-25T03:11:10;18.10;99.90
25811;DHT22;13645;52.460;13.910;2022-08-25T03:13:37;18.10;99.90
25811;DHT22;13645;52.460;13.910;2022-08-25T03:16:05;18.10;99.90
25811;DHT22;13645;52.460;13.910;2022-08-25T03:18:38;18.10;99.90
25811;DHT22;13645;52.460;13.910;2022-08-25T03:21:06;18.10;99.90
25811;DHT22;13645;52.460;13.910;2022-08-25T03:23:33;18.10;99.90
25811;DHT22;13645;52.460;13.910;2022-08-25T03:26:00;18.10;99.90
25811;DHT22;13645;52.460;13.910;2022-08-25T03:28:45;18.10;99.90
25811;DHT22;13645;52.460;13.910;2022-08-25T03:31:11;18.10;99.90
25811;DHT22;13645;52.460;13.910;2022-08-25T03:33:56;18.00;99.90
25811;DHT22;13645;52.460;13.910;2022-08-25T03:36:24;18.00;99.90
25811;DHT22;13645;52.460;13.910;2022-08-25T03:38:52;18.00;99.90
25811;DHT22;13645;52.460;13.910;2022-08-25T03:41:22;18.00;99.90
25811;DHT22;13645;52.460;13.910;2022-08-25T03:43:54;17.90;99.90
25811;DHT22;13645;52.460;13.910;2022-08-25T03:46:27;17.90;99.90
25811;DHT22;13645;52.460;13.910;2022-08-25T03:48:55;17.90;99.90
25811;DHT22;13645;52.460;13.910;2022-08-25T03:51:29;17.90;99.90
25811;DHT22;13645;52.460;13.910;2022-08-25T03:53:56;17.90;99.90
25811;DHT22;13645;52.460;13.910;2022-08-25T03:56:24;17.90;99.90
25811;DHT22;13645;52.460;13.910;2022-08-25T03:58:53;18.00;99.90
25811;DHT22;13645;52.460;13.910;2022-08-25T04:01:21;18.00;99.90
25811;DHT22;13645;52.460;13.910;2022-08-25T04:03:49;18.00;99.90
25811;DHT22;13645;52.460;13.910;2022-08-25T04:06:17;18.00;99.90
25811;DHT22;13645;52.460;13.910;2022-08-25T04:08:45;18.00;99.90
25811;DHT22;13645;52.460;13.910;2022-08-25T04:11:15;18.00;99.90
25811;DHT22;13645;52.460;13.910;2022-08-25T04:13:43;18.00;99.90
25811;DHT22;13645;52.460;13.910;2022-08-25T04:16:14;18.00;99.90
25811;DHT22;13645;52.460;13.910;2022-08-25T04:18:42;17.90;99.90
25811;DHT22;13645;52.460;13.910;2022-08-25T04:21:10;17.90;99.90
25811;DHT22;13645;52.460;13.910;2022-08-25T04:23:41;17.90;99.90
25811;DHT22;13645;52.460;13.910;2022-08-25T04:26:15;17.90;99.90
25811;DHT22;13645;52.460;13.910;2022-08-25T04:28:42;17.80;99.90
25811;DHT22;13645;52.460;13.910;2022-08-25T04:31:10;17.80;99.90
25811;DHT22;13645;52.460;13.910;2022-08-25T04:33:38;17.80;99.90
25811;DHT22;13645;52.460;13.910;2022-08-25T04:36:05;17.90;99.90
25811;DHT22;13645;52.460;13.910;2022-08-25T04:38:39;17.90;99.90
25811;DHT22;13645;52.460;13.910;2022-08-25T04:41:07;17.90;99.90
25811;DHT22;13645;52.460;13.910;2022-08-25T04:43:35;18.00;99.90
25811;DHT22;13645;52.460;13.910;2022-08-25T04:46:11;18.10;99.90
25811;DHT22;13645;52.460;13.910;2022-08-25T04:48:39;18.20;99.90
25811;DHT22;13645;52.460;13.910;2022-08-25T04:51:08;18.20;99.90
25811;DHT22;13645;52.460;13.910;2022-08-25T04:53:35;18.30;99.90
25811;DHT22;13645;52.460;13.910;2022-08-25T04:56:06;18.40;99.90
25811;DHT22;13645;52.460;13.910;2022-08-25T04:58:33;18.40;99.90
25811;DHT22;13645;52.460;13.910;2022-08-25T05:01:05;18.50;99.90
25811;DHT22;13645;52.460;13.910;2022-08-25T05:03:33;18.60;99.90
25811;DHT22;13645;52.460;13.910;2022-08-25T05:06:00;18.70;99.90
25811;DHT22;13645;52.460;13.910;2022-08-25T05:08:27;18.70;99.90
25811;DHT22;13645;52.460;13.910;2022-08-25T05:10:54;18.70;99.90
25811;DHT22;13645;52.460;13.910;2022-08-25T05:13:24;18.70;99.90
25811;DHT22;13645;52.460;13.910;2022-08-25T05:15:56;18.80;99.90
25811;DHT22;13645;52.460;13.910;2022-08-25T05:18:27;18.80;99.90
25811;DHT22;13645;52.460;13.910;2022-08-25T05:20:55;18.90;99.90
25811;DHT22;13645;52.460;13.910;2022-08-25T05:23:24;18.90;99.90
25811;DHT22;13645;52.460;13.910;2022-08-25T05:25:51;18.90;99.90
25811;DHT22;13645;52.460;13.910;2022-08-25T05:28:19;19.00;99.90
25811;DHT22;13645;52.460;13.910;2022-08-25T05:30:46;19.00;99.90
25811;DHT22;13645;52.460;13.910;2022-08-25T05:33:16;19.00;99.90
25811;DHT22;13645;52.460;13.910;2022-08-25T05:35:42;19.00;99.90
25811;DHT22;13645;52.460;13.910;2022-08-25T05:38:10;19.10;99.90
25811;DHT22;13645;52.460;13.910;2022-08-25T05:40:41;19.10;99.90
25811;DHT22;13645;52.460;13.910;2022-08-25T05:43:08;19.10;99.90
25811;DHT22;13645;52.460;13.910;2022-08-25T05:45:34;19.20;99.90
25811;DHT22;13645;52.460;13.910;2022-08-25T05:48:02;19.20;99.90
25811;DHT22;13645;52.460;13.910;2022-08-25T05:50:28;19.20;99.90
25811;DHT22;13645;52.460;13.910;2022-08-25T05:52:55;19.20;99.90
25811;DHT22;13645;52.460;13.910;2022-08-25T05:55:22;19.30;99.90
25811;DHT22;13645;52.460;13.910;2022-08-25T05:57:49;19.30;99.90
25811;DHT22;13645;52.460;13.910;2022-08-25T06:00:16;19.30;99.90
25811;DHT22;13645;52.460;13.910;2022-08-25T06:02:43;19.40;99.90
25811;DHT22;13645;52.460;13.910;2022-08-25T06:05:17;19.40;99.90
25811;DHT22;13645;52.460;13.910;2022-08-25T06:07:45;19.40;99.90
25811;DHT22;13645;52.460;13.910;2022-08-25T06:10:13;19.50;99.90
25811;DHT22;13645;52.460;13.910;2022-08-25T06:12:43;19.50;99.90
25811;DHT22;13645;52.460;13.910;2022-08-25T06:15:15;19.50;99.90
25811;DHT22;13645;52.460;13.910;2022-08-25T06:17:42;19.60;99.90
25811;DHT22;13645;52.460;13.910;2022-08-25T06:20:12;19.60;99.90
25811;DHT22;13645;52.460;13.910;2022-08-25T06:22:40;19.60;99.90
25811;DHT22;13645;52.460;13.910;2022-08-25T06:25:08;19.70;99.90
25811;DHT22;13645;52.460;13.910;2022-08-25T06:27:36;19.70;99.90
25811;DHT22;13645;52.460;13.910;2022-08-25T06:30:05;19.80;99.90
25811;DHT22;13645;52.460;13.910;2022-08-25T06:32:35;19.70;99.90
25811;DHT22;13645;52.460;13.910;2022-08-25T06:35:07;19.80;99.90
25811;DHT22;13645;52.460;13.910;2022-08-25T06:37:35;19.90;99.90
25811;DHT22;13645;52.460;13.910;2022-08-25T06:40:02;19.90;99.90
25811;DHT22;13645;52.460;13.910;2022-08-25T06:42:29;19.80;99.90
25811;DHT22;13645;52.460;13.910;2022-08-25T06:44:56;19.90;99.90
25811;DHT22;13645;52.460;13.910;2022-08-25T06:47:23;19.90;99.90
25811;DHT22;13645;52.460;13.910;2022-08-25T06:49:49;19.90;99.90
25811;DHT22;13645;52.460;13.910;2022-08-25T06:52:16;20.00;99.90
25811;DHT22;13645;52.460;13.910;2022-08-25T06:54:43;19.90;99.90
25811;DHT22;13645;52.460;13.910;2022-08-25T06:57:14;20.00;99.90
25811;DHT22;13645;52.460;13.910;2022-08-25T06:59:41;20.00;99.90
25811;DHT22;13645;52.460;13.910;2022-08-25T07:02:08;19.90;99.90
25811;DHT22;13645;52.460;13.910;2022-08-25T07:04:35;20.00;99.90
25811;DHT22;13645;52.460;13.910;2022-08-25T07:07:03;20.00;99.90
25811;DHT22;13645;52.460;13.910;2022-08-25T07:09:30;20.00;99.90
25811;DHT22;13645;52.460;13.910;2022-08-25T07:12:02;20.00;99.90
25811;DHT22;13645;52.460;13.910;2022-08-25T07:14:31;20.10;99.90
25811;DHT22;13645;52.460;13.910;2022-08-25T07:16:57;20.10;99.90
25811;DHT22;13645;52.460;13.910;2022-08-25T07:19:25;20.10;99.90
25811;DHT22;13645;52.460;13.910;2022-08-25T07:21:52;20.20;99.90
25811;DHT22;13645;52.460;13.910;2022-08-25T07:24:20;20.20;99.90
25811;DHT22;13645;52.460;13.910;2022-08-25T07:26:48;20.20;99.90
25811;DHT22;13645;52.460;13.910;2022-08-25T07:29:18;20.20;99.90
25811;DHT22;13645;52.460;13.910;2022-08-25T07:31:57;20.30;99.90
25811;DHT22;13645;52.460;13.910;2022-08-25T07:34:24;20.40;99.90
25811;DHT22;13645;52.460;13.910;2022-08-25T07:37:09;20.50;99.90
25811;DHT22;13645;52.460;13.910;2022-08-25T07:39:36;20.60;99.90
25811;DHT22;13645;52.460;13.910;2022-08-25T07:42:03;20.70;99.90
25811;DHT22;13645;52.460;13.910;2022-08-25T07:44:37;20.80;99.90
25811;DHT22;13645;52.460;13.910;2022-08-25T07:47:04;20.70;99.90
25811;DHT22;13645;52.460;13.910;2022-08-25T07:49:31;20.70;99.90
25811;DHT22;13645;52.460;13.910;2022-08-25T07:52:05;20.70;99.90
25811;DHT22;13645;52.460;13.910;2022-08-25T07:54:33;20.90;99.90
25811;DHT22;13645;52.460;13.910;2022-08-25T07:57:05;20.90;99.90
25811;DHT22;13645;52.460;13.910;2022-08-25T07:59:33;20.90;99.90
25811;DHT22;13645;52.460;13.910;2022-08-25T08:02:10;21.00;99.90
25811;DHT22;13645;52.460;13.910;2022-08-25T08:04:49;21.00;99.90
25811;DHT22;13645;52.460;13.910;2022-08-25T08:07:17;21.10;99.90
25811;DHT22;13645;52.460;13.910;2022-08-25T08:09:44;21.10;99.90
25811;DHT22;13645;52.460;13.910;2022-08-25T08:12:11;21.20;99.90
25811;DHT22;13645;52.460;13.910;2022-08-25T08:14:40;21.30;99.90
25811;DHT22;13645;52.460;13.910;2022-08-25T08:17:12;21.30;99.90
25811;DHT22;13645;52.460;13.910;2022-08-25T08:19:39;21.30;99.90
25811;DHT22;13645;52.460;13.910;2022-08-25T08:22:11;21.30;99.90
25811;DHT22;13645;52.460;13.910;2022-08-25T08:24:42;21.30;99.90
25811;DHT22;13645;52.460;13.910;2022-08-25T08:27:20;21.40;99.90
25811;DHT22;13645;52.460;13.910;2022-08-25T08:32:58;21.40;99.90
25811;DHT22;13645;52.460;13.910;2022-08-25T08:35:43;21.50;99.90
25811;DHT22;13645;52.460;13.910;2022-08-25T08:38:10;21.60;99.90
25811;DHT22;13645;52.460;13.910;2022-08-25T08:40:59;21.80;99.90
25811;DHT22;13645;52.460;13.910;2022-08-25T08:43:53;21.90;99.90
25811;DHT22;13645;52.460;13.910;2022-08-25T08:46:22;22.00;99.90
25811;DHT22;13645;52.460;13.910;2022-08-25T08:49:05;22.10;99.90
25811;DHT22;13645;52.460;13.910;2022-08-25T08:51:42;22.20;99.90
25811;DHT22;13645;52.460;13.910;2022-08-25T08:54:36;22.40;99.90
25811;DHT22;13645;52.460;13.910;2022-08-25T08:57:17;22.50;99.90
25811;DHT22;13645;52.460;13.910;2022-08-25T08:59:48;22.70;99.90
25811;DHT22;13645;52.460;13.910;2022-08-25T09:05:17;23.20;99.90
25811;DHT22;13645;52.460;13.910;2022-08-25T09:07:53;23.70;99.90
25811;DHT22;13645;52.460;13.910;2022-08-25T09:10:42;24.60;99.90
25811;DHT22;13645;52.460;13.910;2022-08-25T09:13:41;25.00;99.90
25811;DHT22;13645;52.460;13.910;2022-08-25T09:16:24;25.40;99.90
25811;DHT22;13645;52.460;13.910;2022-08-25T09:28:06;26.70;99.90
25811;DHT22;13645;52.460;13.910;2022-08-25T09:30:44;26.50;99.90
25811;DHT22;13645;52.460;13.910;2022-08-25T09:33:21;26.70;99.90
25811;DHT22;13645;52.460;13.910;2022-08-25T09:35:50;26.60;99.90
25811;DHT22;13645;52.460;13.910;2022-08-25T09:38:20;26.60;99.90
25811;DHT22;13645;52.460;13.910;2022-08-25T09:40:49;26.70;99.90
25811;DHT22;13645;52.460;13.910;2022-08-25T09:43:20;26.80;99.90
25811;DHT22;13645;52.460;13.910;2022-08-25T09:46:15;26.90;99.90
25811;DHT22;13645;52.460;13.910;2022-08-25T09:48:52;27.40;99.90
25811;DHT22;13645;52.460;13.910;2022-08-25T09:51:34;28.00;99.90
25811;DHT22;13645;52.460;13.910;2022-08-25T09:56:53;28.70;99.90
25811;DHT22;13645;52.460;13.910;2022-08-25T09:59:24;28.80;99.90
25811;DHT22;13645;52.460;13.910;2022-08-25T10:02:30;28.90;99.90
25811;DHT22;13645;52.460;13.910;2022-08-25T10:04:58;29.10;99.90
25811;DHT22;13645;52.460;13.910;2022-08-25T10:07:28;29.10;99.90
25811;DHT22;13645;52.460;13.910;2022-08-25T10:10:04;28.90;99.90
25811;DHT22;13645;52.460;13.910;2022-08-25T10:12:39;28.70;99.90
25811;DHT22;13645;52.460;13.910;2022-08-25T10:15:35;28.60;99.90
25811;DHT22;13645;52.460;13.910;2022-08-25T10:18:24;28.40;99.90
25811;DHT22;13645;52.460;13.910;2022-08-25T10:23:46;28.60;99.90
25811;DHT22;13645;52.460;13.910;2022-08-25T10:32:17;28.90;99.90
25811;DHT22;13645;52.460;13.910;2022-08-25T10:34:53;28.90;99.90
25811;DHT22;13645;52.460;13.910;2022-08-25T10:40:19;28.60;99.90
25811;DHT22;13645;52.460;13.910;2022-08-25T10:45:22;28.70;99.90
25811;DHT22;13645;52.460;13.910;2022-08-25T10:53:43;29.90;99.90
25811;DHT22;13645;52.460;13.910;2022-08-25T10:56:25;30.40;99.90
25811;DHT22;13645;52.460;13.910;2022-08-25T11:04:37;31.20;99.90
25811;DHT22;13645;52.460;13.910;2022-08-25T11:07:24;31.10;99.90
25811;DHT22;13645;52.460;13.910;2022-08-25T11:09:57;31.40;99.90
25811;DHT22;13645;52.460;13.910;2022-08-25T11:12:33;31.50;99.90
25811;DHT22;13645;52.460;13.910;2022-08-25T11:15:07;31.10;99.90
25811;DHT22;13645;52.460;13.910;2022-08-25T11:20:13;31.40;99.90
25811;DHT22;13645;52.460;13.910;2022-08-25T11:25:27;31.30;99.90
25811;DHT22;13645;52.460;13.910;2022-08-25T11:30:58;32.10;99.90
25811;DHT22;13645;52.460;13.910;2022-08-25T11:33:28;32.00;99.90
25811;DHT22;13645;52.460;13.910;2022-08-25T11:36:15;31.90;99.90
25811;DHT22;13645;52.460;13.910;2022-08-25T11:38:56;32.10;99.90
25811;DHT22;13645;52.460;13.910;2022-08-25T11:47:27;31.60;99.90
25811;DHT22;13645;52.460;13.910;2022-08-25T11:55:44;32.00;99.90
25811;DHT22;13645;52.460;13.910;2022-08-25T12:01:00;32.90;99.90
25811;DHT22;13645;52.460;13.910;2022-08-25T12:06:20;32.10;99.90
25811;DHT22;13645;52.460;13.910;2022-08-25T12:11:42;31.50;99.90
25811;DHT22;13645;52.460;13.910;2022-08-25T12:24:46;32.60;99.90
25811;DHT22;13645;52.460;13.910;2022-08-25T12:27:35;32.60;99.90
25811;DHT22;13645;52.460;13.910;2022-08-25T12:30:31;32.60;99.90
25811;DHT22;13645;52.460;13.910;2022-08-25T12:33:42;32.90;99.90
25811;DHT22;13645;52.460;13.910;2022-08-25T12:36:25;32.80;99.90
25811;DHT22;13645;52.460;13.910;2022-08-25T12:38:53;32.20;99.90
25811;DHT22;13645;52.460;13.910;2022-08-25T12:41:26;31.80;99.90
25811;DHT22;13645;52.460;13.910;2022-08-25T12:44:32;31.90;99.90
25811;DHT22;13645;52.460;13.910;2022-08-25T12:47:23;32.20;99.90
25811;DHT22;13645;52.460;13.910;2022-08-25T12:53:10;32.10;99.90
25811;DHT22;13645;52.460;13.910;2022-08-25T12:55:43;32.00;99.90
25811;DHT22;13645;52.460;13.910;2022-08-25T12:58:11;32.30;99.90
25811;DHT22;13645;52.460;13.910;2022-08-25T13:00:56;32.60;99.90
25811;DHT22;13645;52.460;13.910;2022-08-25T13:03:54;32.70;99.90
25811;DHT22;13645;52.460;13.910;2022-08-25T13:12:17;33.00;99.90
25811;DHT22;13645;52.460;13.910;2022-08-25T13:14:53;32.80;99.90
25811;DHT22;13645;52.460;13.910;2022-08-25T13:17:27;32.50;99.90
25811;DHT22;13645;52.460;13.910;2022-08-25T13:20:30;32.50;99.90
25811;DHT22;13645;52.460;13.910;2022-08-25T13:22:58;32.60;99.90
25811;DHT22;13645;52.460;13.910;2022-08-25T13:25:28;32.80;99.90
25811;DHT22;13645;52.460;13.910;2022-08-25T13:28:00;32.70;99.90
25811;DHT22;13645;52.460;13.910;2022-08-25T13:30:35;32.20;99.90
25811;DHT22;13645;52.460;13.910;2022-08-25T13:33:16;31.80;99.90
25811;DHT22;13645;52.460;13.910;2022-08-25T13:35:54;31.60;99.90
25811;DHT22;13645;52.460;13.910;2022-08-25T13:38:47;31.80;99.90
25811;DHT22;13645;52.460;13.910;2022-08-25T13:41:23;32.20;99.90
25811;DHT22;13645;52.460;13.910;2022-08-25T13:43:55;32.50;99.90
25811;DHT22;13645;52.460;13.910;2022-08-25T13:46:26;32.50;99.90
25811;DHT22;13645;52.460;13.910;2022-08-25T13:49:03;32.20;99.90
25811;DHT22;13645;52.460;13.910;2022-08-25T13:51:31;31.70;99.90
25811;DHT22;13645;52.460;13.910;2022-08-25T13:54:18;31.50;99.90
25811;DHT22;13645;52.460;13.910;2022-08-25T13:56:46;31.40;99.90
25811;DHT22;13645;52.460;13.910;2022-08-25T14:01:47;31.80;99.90
25811;DHT22;13645;52.460;13.910;2022-08-25T14:04:31;31.80;99.90
25811;DHT22;13645;52.460;13.910;2022-08-25T14:18:20;31.70;99.90
25811;DHT22;13645;52.460;13.910;2022-08-25T14:20:53;31.10;99.90
25811;DHT22;13645;52.460;13.910;2022-08-25T14:23:23;30.40;99.90
25811;DHT22;13645;52.460;13.910;2022-08-25T14:25:53;29.90;99.90
25811;DHT22;13645;52.460;13.910;2022-08-25T14:28:23;29.70;99.90
25811;DHT22;13645;52.460;13.910;2022-08-25T14:30:56;29.90;99.90
25811;DHT22;13645;52.460;13.910;2022-08-25T14:33:32;30.20;99.90
25811;DHT22;13645;52.460;13.910;2022-08-25T14:36:00;30.50;99.90
25811;DHT22;13645;52.460;13.910;2022-08-25T14:38:31;30.80;99.90
25811;DHT22;13645;52.460;13.910;2022-08-25T14:40:59;30.90;99.90
25811;DHT22;13645;52.460;13.910;2022-08-25T14:43:26;31.10;99.90
25811;DHT22;13645;52.460;13.910;2022-08-25T14:45:58;31.20;99.90
25811;DHT22;13645;52.460;13.910;2022-08-25T14:48:32;31.40;99.90
25811;DHT22;13645;52.460;13.910;2022-08-25T14:51:02;31.30;99.90
25811;DHT22;13645;52.460;13.910;2022-08-25T14:53:29;31.10;99.90
25811;DHT22;13645;52.460;13.910;2022-08-25T14:55:55;30.70;99.90
25811;DHT22;13645;52.460;13.910;2022-08-25T14:58:25;30.20;99.90
25811;DHT22;13645;52.460;13.910;2022-08-25T15:00:53;29.80;99.90
25811;DHT22;13645;52.460;13.910;2022-08-25T15:03:29;29.50;99.90
25811;DHT22;13645;52.460;13.910;2022-08-25T15:05:59;29.20;99.90
25811;DHT22;13645;52.460;13.910;2022-08-25T15:08:26;29.00;99.90
25811;DHT22;13645;52.460;13.910;2022-08-25T15:11:12;28.80;99.90
25811;DHT22;13645;52.460;13.910;2022-08-25T15:13:40;28.90;99.90
25811;DHT22;13645;52.460;13.910;2022-08-25T15:16:40;29.10;99.90
25811;DHT22;13645;52.460;13.910;2022-08-25T15:19:08;29.30;99.90
25811;DHT22;13645;52.460;13.910;2022-08-25T15:21:35;29.30;99.90
25811;DHT22;13645;52.460;13.910;2022-08-25T15:24:04;29.40;99.90
25811;DHT22;13645;52.460;13.910;2022-08-25T15:26:37;29.40;99.90
25811;DHT22;13645;52.460;13.910;2022-08-25T15:29:05;29.50;99.90
25811;DHT22;13645;52.460;13.910;2022-08-25T15:31:34;29.60;99.90
25811;DHT22;13645;52.460;13.910;2022-08-25T15:34:01;29.60;99.90
25811;DHT22;13645;52.460;13.910;2022-08-25T15:36:28;29.60;99.90
25811;DHT22;13645;52.460;13.910;2022-08-25T15:38:54;29.60;99.90
25811;DHT22;13645;52.460;13.910;2022-08-25T15:41:21;29.40;99.90
25811;DHT22;13645;52.460;13.910;2022-08-25T15:43:54;29.10;99.90
25811;DHT22;13645;52.460;13.910;2022-08-25T15:46:23;28.80;99.90
25811;DHT22;13645;52.460;13.910;2022-08-25T15:48:50;28.60;99.90
25811;DHT22;13645;52.460;13.910;2022-08-25T15:51:17;28.50;99.90
25811;DHT22;13645;52.460;13.910;2022-08-25T15:53:44;28.40;99.90
25811;DHT22;13645;52.460;13.910;2022-08-25T15:56:11;28.50;99.90
25811;DHT22;13645;52.460;13.910;2022-08-25T15:58:53;28.50;99.90
25811;DHT22;13645;52.460;13.910;2022-08-25T16:01:23;28.60;99.90
25811;DHT22;13645;52.460;13.910;2022-08-25T16:03:51;28.60;99.90
25811;DHT22;13645;52.460;13.910;2022-08-25T16:06:18;28.50;99.90
25811;DHT22;13645;52.460;13.910;2022-08-25T16:08:44;28.50;99.90
25811;DHT22;13645;52.460;13.910;2022-08-25T16:11:21;28.40;99.90
25811;DHT22;13645;52.460;13.910;2022-08-25T16:13:48;28.20;99.90
25811;DHT22;13645;52.460;13.910;2022-08-25T16:16:17;28.10;99.90
25811;DHT22;13645;52.460;13.910;2022-08-25T16:18:44;27.90;99.90
25811;DHT22;13645;52.460;13.910;2022-08-25T16:21:14;27.70;99.90
25811;DHT22;13645;52.460;13.910;2022-08-25T16:23:42;27.60;99.90
25811;DHT22;13645;52.460;13.910;2022-08-25T16:26:10;27.50;99.90
25811;DHT22;13645;52.460;13.910;2022-08-25T16:28:40;27.40;99.90
25811;DHT22;13645;52.460;13.910;2022-08-25T16:31:12;27.40;99.90
25811;DHT22;13645;52.460;13.910;2022-08-25T16:33:39;27.40;99.90
25811;DHT22;13645;52.460;13.910;2022-08-25T16:36:10;27.30;99.90
25811;DHT22;13645;52.460;13.910;2022-08-25T16:38:39;27.30;99.90
25811;DHT22;13645;52.460;13.910;2022-08-25T16:41:08;27.30;99.90
25811;DHT22;13645;52.460;13.910;2022-08-25T16:43:35;27.20;99.90
25811;DHT22;13645;52.460;13.910;2022-08-25T16:46:06;27.20;99.90
25811;DHT22;13645;52.460;13.910;2022-08-25T16:48:34;27.10;99.90
25811;DHT22;13645;52.460;13.910;2022-08-25T16:51:06;27.00;99.90
25811;DHT22;13645;52.460;13.910;2022-08-25T16:53:33;27.00;99.90
25811;DHT22;13645;52.460;13.910;2022-08-25T16:56:19;27.00;99.90
25811;DHT22;13645;52.460;13.910;2022-08-25T16:58:53;26.90;99.90
25811;DHT22;13645;52.460;13.910;2022-08-25T17:01:23;26.80;99.90
25811;DHT22;13645;52.460;13.910;2022-08-25T17:03:52;26.70;99.90
25811;DHT22;13645;52.460;13.910;2022-08-25T17:06:22;26.60;99.90
25811;DHT22;13645;52.460;13.910;2022-08-25T17:08:49;26.60;99.90
25811;DHT22;13645;52.460;13.910;2022-08-25T17:11:28;26.50;99.90
25811;DHT22;13645;52.460;13.910;2022-08-25T17:13:58;26.40;99.90
25811;DHT22;13645;52.460;13.910;2022-08-25T17:16:28;26.40;99.90
25811;DHT22;13645;52.460;13.910;2022-08-25T17:18:58;26.30;99.90
25811;DHT22;13645;52.460;13.910;2022-08-25T17:21:29;26.20;99.90
25811;DHT22;13645;52.460;13.910;2022-08-25T17:23:56;26.20;99.90
25811;DHT22;13645;52.460;13.910;2022-08-25T17:26:24;26.10;99.90
25811;DHT22;13645;52.460;13.910;2022-08-25T17:28:55;26.00;99.90